Time;durP1;ratioP1;P1;durP2;ratioP2;P2;SDS_P1;SDS_P2;PMS_P1;PMS_P2;Temp;Humidity;BMP_temperature;BMP_pressure;BME280_temperature;BME280_humidity;BME280_pressure;Samples;Min_cycle;Max_cycle;Signal;HPM_P1;HPM_P2
2022/09/15 00:02:09;;;;;;;3.70;2.25;;;18.00;99.90;;;;;;5052270;28;20040;-74
2022/09/15 00:04:35;;;;;;;4.88;2.53;;;18.00;99.90;;;;;;5057045;28;20489;-75
2022/09/15 00:07:01;;;;;;;2.35;2.10;;;18.00;99.90;;;;;;5056600;28;20021;-75
2022/09/15 00:09:27;;;;;;;10.80;3.00;;;17.90;99.90;;;;;;5056878;28;20052;-75
2022/09/15 00:11:52;;;;;;;6.32;2.33;;;17.90;99.90;;;;;;5056195;28;20029;-75
2022/09/15 00:14:18;;;;;;;4.10;2.58;;;17.90;99.90;;;;;;5056420;28;20094;-75
2022/09/15 00:16:44;;;;;;;4.20;2.28;;;17.80;99.90;;;;;;5055316;28;20116;-75
2022/09/15 00:19:09;;;;;;;5.97;2.47;;;17.80;99.90;;;;;;5056320;28;20543;-75
2022/09/15 00:21:38;;;;;;;4.32;2.17;;;17.80;99.90;;;;;;5055966;28;20029;-75
2022/09/15 00:24:03;;;;;;;2.60;2.40;;;17.80;99.90;;;;;;5055039;28;20424;-75
2022/09/15 00:26:30;;;;;;;6.78;2.83;;;17.80;99.90;;;;;;5055976;28;20029;-75
2022/09/15 00:28:57;;;;;;;6.53;2.75;;;17.70;99.90;;;;;;5056176;28;20025;-75
2022/09/15 00:31:25;;;;;;;7.72;3.40;;;17.70;99.90;;;;;;5055762;28;20033;-74
2022/09/15 00:33:53;;;;;;;9.80;2.97;;;17.70;99.90;;;;;;5054773;28;20488;-75
2022/09/15 00:36:21;;;;;;;3.63;2.83;;;17.70;99.90;;;;;;5055799;28;20059;-75
2022/09/15 00:38:47;;;;;;;4.53;2.83;;;17.70;99.90;;;;;;5054753;28;20371;-75
2022/09/15 00:41:16;;;;;;;6.45;2.65;;;17.70;99.90;;;;;;5055888;28;20060;-75
2022/09/15 00:43:41;;;;;;;6.07;3.05;;;17.70;99.90;;;;;;5055638;28;20036;-75
2022/09/15 00:46:08;;;;;;;5.47;2.60;;;17.70;99.90;;;;;;5055933;28;20033;-75
2022/09/15 00:48:36;;;;;;;4.63;2.83;;;17.60;99.90;;;;;;5054691;28;20033;-74
2022/09/15 00:51:05;;;;;;;6.30;2.90;;;17.70;99.90;;;;;;5055782;28;20106;-75
2022/09/15 00:53:31;;;;;;;9.80;4.40;;;17.70;99.90;;;;;;5054463;28;20436;-75
2022/09/15 00:55:58;;;;;;;4.35;2.70;;;17.70;99.90;;;;;;5054388;28;20256;-74
2022/09/15 00:58:26;;;;;;;7.00;1.80;;;17.70;99.90;;;;;;5055704;28;20468;-75
2022/09/15 01:00:59;;;;;;;9.73;2.40;;;17.70;99.90;;;;;;5054288;28;20483;-75
2022/09/15 01:03:26;;;;;;;6.47;2.42;;;17.80;99.90;;;;;;5054011;28;20091;-75
2022/09/15 01:05:56;;;;;;;4.97;2.65;;;17.80;99.90;;;;;;5054225;28;20432;-75
2022/09/15 01:08:29;;;;;;;6.22;3.10;;;17.70;99.90;;;;;;5055552;28;20056;-74
2022/09/15 01:10:55;;;;;;;8.38;2.80;;;17.70;99.90;;;;;;5055305;28;20025;-75
2022/09/15 01:13:21;;;;;;;7.35;2.85;;;17.70;99.90;;;;;;5053673;28;20048;-75
2022/09/15 01:16:09;;;;;;;8.43;2.90;;;17.70;99.90;;;;;;5054813;28;20032;-75
2022/09/15 01:19:13;;;;;;;7.33;2.70;;;17.70;99.90;;;;;;5054598;28;20540;-75
2022/09/15 01:21:47;;;;;;;4.40;2.88;;;17.60;99.90;;;;;;5013454;28;20049;-74
2022/09/15 01:24:28;;;;;;;7.97;3.00;;;17.60;99.90;;;;;;5045930;28;20040;-75
2022/09/15 01:26:59;;;;;;;7.35;3.28;;;17.60;99.90;;;;;;5055357;28;20111;-75
2022/09/15 01:29:46;;;;;;;5.55;2.50;;;17.60;99.90;;;;;;5055406;28;20017;-75
2022/09/15 01:35:13;;;;;;;10.30;2.65;;;17.60;99.90;;;;;;5058649;28;20600;-76
2022/09/15 01:37:43;;;;;;;3.85;2.80;;;17.50;99.90;;;;;;5057070;28;20029;-74
2022/09/15 01:40:13;;;;;;;7.60;3.03;;;17.50;99.90;;;;;;5057402;28;20476;-75
2022/09/15 01:42:41;;;;;;;9.65;2.72;;;17.50;99.90;;;;;;5055864;28;20029;-74
2022/09/15 01:45:23;;;;;;;6.95;2.63;;;17.40;99.90;;;;;;5053936;28;20079;-75
2022/09/15 01:47:53;;;;;;;5.57;3.42;;;17.40;99.90;;;;;;5054737;28;20040;-74
2022/09/15 01:50:27;;;;;;;9.63;3.50;;;17.40;99.90;;;;;;5054648;28;20079;-74
2022/09/15 01:52:56;;;;;;;6.18;2.67;;;17.40;99.90;;;;;;5054190;28;20416;-74
2022/09/15 01:55:36;;;;;;;5.57;2.83;;;17.40;99.90;;;;;;5053706;28;20025;-74
2022/09/15 01:58:02;;;;;;;6.22;3.28;;;17.40;99.90;;;;;;5053380;28;20061;-75
2022/09/15 02:00:31;;;;;;;7.93;2.60;;;17.40;99.90;;;;;;5053173;28;20052;-75
2022/09/15 02:03:14;;;;;;;8.27;3.05;;;17.40;99.90;;;;;;5053982;28;20029;-75
2022/09/15 02:05:50;;;;;;;5.50;2.80;;;17.30;99.90;;;;;;5053395;28;20025;-75
2022/09/15 02:08:23;;;;;;;8.65;2.88;;;17.30;99.90;;;;;;5054434;28;20025;-75
2022/09/15 02:11:03;;;;;;;6.15;2.67;;;17.30;99.90;;;;;;5053291;28;20021;-75
2022/09/15 02:14:09;;;;;;;9.10;2.90;;;17.20;99.90;;;;;;5054417;28;20036;-75
2022/09/15 02:16:36;;;;;;;3.67;2.88;;;17.10;99.90;;;;;;5054430;28;20032;-75
2022/09/15 02:19:25;;;;;;;3.65;3.08;;;17.10;99.90;;;;;;5052857;28;20028;-75
2022/09/15 02:22:03;;;;;;;4.78;2.85;;;17.00;99.90;;;;;;5053915;28;20029;-75
2022/09/15 02:24:34;;;;;;;10.27;3.22;;;17.00;99.90;;;;;;5053050;28;20029;-75
2022/09/15 02:27:03;;;;;;;8.45;4.10;;;17.00;99.90;;;;;;5053842;28;20025;-75
2022/09/15 02:29:35;;;;;;;8.23;4.00;;;17.00;99.90;;;;;;5053984;28;20025;-75
2022/09/15 02:32:01;;;;;;;6.78;3.22;;;17.00;99.90;;;;;;5052911;28;20039;-75
2022/09/15 02:34:34;;;;;;;5.85;3.38;;;17.00;99.90;;;;;;5052532;28;20029;-74
2022/09/15 02:37:00;;;;;;;12.07;3.63;;;17.00;99.90;;;;;;5052864;28;20021;-75
2022/09/15 02:39:32;;;;;;;9.85;3.05;;;17.00;99.90;;;;;;5052593;28;20032;-75
2022/09/15 02:41:59;;;;;;;6.63;3.70;;;16.90;99.90;;;;;;5052712;28;20428;-75
2022/09/15 02:44:25;;;;;;;7.05;3.65;;;16.90;99.90;;;;;;5052467;28;20392;-75
2022/09/15 02:46:51;;;;;;;7.50;3.65;;;16.90;99.90;;;;;;5053766;28;20021;-75
2022/09/15 02:49:18;;;;;;;5.05;2.70;;;16.90;99.90;;;;;;5054119;28;20029;-75
2022/09/15 02:51:43;;;;;;;5.30;2.92;;;16.80;99.90;;;;;;5052366;28;20032;-75
2022/09/15 02:54:09;;;;;;;14.32;3.58;;;16.80;99.90;;;;;;5053677;28;20103;-75
2022/09/15 02:56:34;;;;;;;10.57;3.30;;;16.80;99.90;;;;;;5053676;28;20032;-75
2022/09/15 02:59:00;;;;;;;8.70;3.35;;;16.70;99.90;;;;;;5053637;28;20025;-75
2022/09/15 03:01:33;;;;;;;7.05;4.75;;;16.70;99.90;;;;;;5053363;28;20087;-75
2022/09/15 03:04:00;;;;;;;6.20;3.15;;;16.70;99.90;;;;;;5052135;28;20049;-75
2022/09/15 03:06:33;;;;;;;7.45;3.85;;;16.70;99.90;;;;;;5053541;28;20025;-75
2022/09/15 03:09:00;;;;;;;7.82;3.53;;;16.70;99.90;;;;;;5053596;28;20017;-75
2022/09/15 03:11:27;;;;;;;9.80;3.45;;;16.60;99.90;;;;;;5052343;28;20063;-75
2022/09/15 03:13:57;;;;;;;6.93;3.50;;;16.60;99.90;;;;;;5053472;28;20096;-75
2022/09/15 03:16:24;;;;;;;10.05;3.65;;;16.60;99.90;;;;;;5052605;28;20380;-75
2022/09/15 03:18:49;;;;;;;12.55;3.97;;;16.60;99.90;;;;;;5052184;28;20021;-75
2022/09/15 03:21:17;;;;;;;6.13;3.47;;;16.60;99.90;;;;;;5052037;28;20032;-75
2022/09/15 03:23:43;;;;;;;11.00;3.67;;;16.60;99.90;;;;;;5053444;28;20071;-75
2022/09/15 03:26:10;;;;;;;8.95;3.65;;;16.60;99.90;;;;;;5052091;28;20028;-75
2022/09/15 03:28:37;;;;;;;17.88;6.18;;;16.60;99.90;;;;;;5053357;28;20049;-75
2022/09/15 03:31:04;;;;;;;10.20;3.83;;;16.50;99.90;;;;;;5053353;28;20029;-75
2022/09/15 03:33:30;;;;;;;12.40;4.30;;;16.50;99.90;;;;;;5053207;28;20025;-75
2022/09/15 03:35:56;;;;;;;7.72;3.97;;;16.50;99.90;;;;;;5053242;28;20021;-75
2022/09/15 03:38:22;;;;;;;6.85;4.63;;;16.50;99.90;;;;;;5055767;28;20021;-75
2022/09/15 03:41:01;;;;;;;11.98;4.32;;;16.50;99.90;;;;;;5055950;28;20025;-74
2022/09/15 03:43:28;;;;;;;7.80;3.92;;;16.40;99.90;;;;;;5055774;28;20039;-75
2022/09/15 03:45:54;;;;;;;10.05;4.35;;;16.40;99.90;;;;;;5057254;28;20021;-75
2022/09/15 03:48:21;;;;;;;4.97;4.30;;;16.40;99.90;;;;;;5055758;28;20036;-75
2022/09/15 03:50:47;;;;;;;5.10;3.30;;;16.40;99.90;;;;;;5056636;28;20029;-74
2022/09/15 03:53:13;;;;;;;8.32;3.80;;;16.30;99.90;;;;;;5056388;28;20032;-75
2022/09/15 03:55:39;;;;;;;6.18;3.53;;;16.30;99.90;;;;;;5055143;28;20029;-74
2022/09/15 03:58:04;;;;;;;7.50;5.05;;;16.20;99.90;;;;;;5056814;28;20110;-74
2022/09/15 04:00:30;;;;;;;6.97;4.13;;;16.20;99.90;;;;;;5055435;28;20070;-74
2022/09/15 04:02:55;;;;;;;7.18;4.57;;;16.20;99.90;;;;;;5056508;28;20039;-74
2022/09/15 04:05:21;;;;;;;9.10;4.38;;;16.20;99.90;;;;;;5056626;28;20054;-74
2022/09/15 04:07:48;;;;;;;6.63;3.97;;;16.20;99.90;;;;;;5055311;28;20021;-75
2022/09/15 04:10:14;;;;;;;6.82;4.10;;;16.20;99.90;;;;;;5056079;28;20032;-74
2022/09/15 04:12:40;;;;;;;10.05;4.97;;;16.10;99.90;;;;;;5055221;28;20095;-75
2022/09/15 04:15:06;;;;;;;9.93;4.43;;;16.10;99.90;;;;;;5056471;28;20028;-75
2022/09/15 04:17:31;;;;;;;9.95;5.10;;;16.10;99.90;;;;;;5056368;28;20064;-75
2022/09/15 04:19:57;;;;;;;7.30;5.50;;;16.10;99.90;;;;;;5056638;28;20424;-76
2022/09/15 04:22:23;;;;;;;9.07;5.30;;;16.10;99.90;;;;;;5056121;28;20029;-76
2022/09/15 04:24:49;;;;;;;7.78;4.40;;;16.10;99.90;;;;;;5054905;28;20025;-57
2022/09/15 04:27:16;;;;;;;9.80;5.07;;;16.20;99.90;;;;;;5056260;28;20032;-58
2022/09/15 04:29:42;;;;;;;9.93;4.22;;;16.10;99.90;;;;;;5056135;28;20028;-58
2022/09/15 04:32:08;;;;;;;9.82;4.72;;;16.10;99.90;;;;;;5056455;28;20040;-58
2022/09/15 04:34:34;;;;;;;11.23;5.50;;;16.20;99.90;;;;;;5056129;28;20037;-58
2022/09/15 04:37:00;;;;;;;10.98;5.50;;;16.20;99.90;;;;;;5055594;28;20032;-58
2022/09/15 04:39:25;;;;;;;8.93;5.85;;;16.20;99.90;;;;;;5055626;28;20036;-58
2022/09/15 04:41:51;;;;;;;12.70;6.50;;;16.20;99.90;;;;;;5055820;28;20373;-58
2022/09/15 04:44:16;;;;;;;11.88;5.90;;;16.30;99.90;;;;;;5055827;28;20040;-58
2022/09/15 04:46:42;;;;;;;10.45;5.60;;;16.20;99.90;;;;;;5055753;28;20025;-58
2022/09/15 04:49:08;;;;;;;9.63;5.32;;;16.20;99.90;;;;;;5055672;28;20083;-72
2022/09/15 04:51:34;;;;;;;11.57;5.80;;;16.20;99.90;;;;;;5054254;28;20127;-72
2022/09/15 04:54:00;;;;;;;12.30;5.18;;;16.20;99.90;;;;;;5054295;28;20098;-73
2022/09/15 04:56:26;;;;;;;13.52;4.82;;;16.20;99.90;;;;;;5054809;28;20038;-72
2022/09/15 04:58:58;;;;;;;5.78;4.20;;;16.20;99.90;;;;;;5055643;28;20025;-72
2022/09/15 05:01:26;;;;;;;10.98;4.20;;;16.20;99.90;;;;;;5054648;28;20428;-72
2022/09/15 05:03:52;;;;;;;5.95;3.65;;;16.20;99.90;;;;;;5055319;28;20499;-72
2022/09/15 05:06:21;;;;;;;7.07;3.88;;;16.20;99.90;;;;;;5054389;28;20051;-72
2022/09/15 05:08:49;;;;;;;8.93;4.10;;;16.20;99.90;;;;;;5054272;28;20029;-71
2022/09/15 05:11:15;;;;;;;5.60;4.15;;;16.20;99.90;;;;;;5054976;28;20036;-72
2022/09/15 05:13:41;;;;;;;7.78;3.83;;;16.20;99.90;;;;;;5055190;28;20046;-72
2022/09/15 05:16:10;;;;;;;6.90;3.80;;;16.20;99.90;;;;;;5055206;28;20461;-72
2022/09/15 05:18:36;;;;;;;;;;;16.30;99.90;;;;;;5054165;28;20028;-72
2022/09/15 05:21:04;;;;;;;10.77;3.75;;;16.30;99.90;;;;;;5053833;28;19940;-72
2022/09/15 05:23:32;;;;;;;5.18;3.80;;;16.40;99.90;;;;;;5054589;28;20041;-71
2022/09/15 05:26:00;;;;;;;5.35;3.50;;;16.50;99.90;;;;;;5054964;28;20035;-71
2022/09/15 05:28:27;;;;;;;10.13;3.95;;;16.60;99.90;;;;;;5053770;28;20025;-72
2022/09/15 05:30:54;;;;;;;9.63;3.35;;;16.60;99.90;;;;;;5054034;28;20373;-71
2022/09/15 05:33:21;;;;;;;7.80;3.92;;;16.60;99.90;;;;;;5054995;28;20056;-72
2022/09/15 05:35:54;;;;;;;5.10;3.50;;;16.70;99.90;;;;;;5054779;28;20029;-71
2022/09/15 05:38:20;;;;;;;6.28;3.47;;;16.80;99.90;;;;;;5054787;28;20107;-71
2022/09/15 05:40:45;;;;;;;5.15;3.10;;;16.90;99.90;;;;;;5055911;28;20071;-71
2022/09/15 05:43:12;;;;;;;10.30;2.50;;;17.00;99.90;;;;;;5054631;28;20481;-71
2022/09/15 05:45:37;;;;;;;5.03;2.65;;;17.10;99.90;;;;;;5054712;28;20032;-72
2022/09/15 05:48:03;;;;;;;4.45;1.70;;;17.30;99.90;;;;;;5054658;28;20021;-72
2022/09/15 05:50:29;;;;;;;4.75;1.63;;;17.40;99.90;;;;;;5054741;28;20083;-72
2022/09/15 05:52:55;;;;;;;2.47;1.52;;;17.50;99.90;;;;;;5054496;28;20044;-72
2022/09/15 05:55:21;;;;;;;4.50;1.35;;;17.70;99.90;;;;;;5053310;28;20384;-72
2022/09/15 05:57:47;;;;;;;6.90;1.30;;;18.00;99.90;;;;;;5054352;28;20029;-72
2022/09/15 06:00:13;;;;;;;6.20;1.23;;;18.20;99.90;;;;;;5053876;28;20049;-72
2022/09/15 06:02:38;;;;;;;4.35;1.45;;;18.40;99.90;;;;;;5052965;28;20060;-69
2022/09/15 06:05:04;;;;;;;5.18;1.73;;;18.50;99.90;;;;;;5054287;28;20461;-69
2022/09/15 06:07:30;;;;;;;3.22;1.50;;;18.70;99.90;;;;;;5054806;28;20017;-69
2022/09/15 06:09:56;;;;;;;8.07;1.92;;;18.80;99.90;;;;;;5054657;28;20499;-69
2022/09/15 06:12:22;;;;;;;2.20;1.33;;;18.90;99.90;;;;;;5054269;28;20029;-69
2022/09/15 06:14:49;;;;;;;2.03;1.20;;;18.90;99.90;;;;;;5053135;28;20031;-70
2022/09/15 06:17:21;;;;;;;2.17;0.93;;;18.90;99.90;;;;;;5053433;28;20025;-71
2022/09/15 06:19:48;;;;;;;5.45;1.13;;;18.90;99.90;;;;;;5061897;28;20131;-70
2022/09/15 06:22:13;;;;;;;5.88;1.10;;;18.90;99.90;;;;;;5060739;28;20029;-73
2022/09/15 06:24:39;;;;;;;2.90;1.20;;;18.90;99.90;;;;;;5059641;28;20108;-70
2022/09/15 06:27:05;;;;;;;4.88;1.15;;;18.90;99.90;;;;;;5057240;28;20029;-72
2022/09/15 06:29:31;;;;;;;9.50;2.38;;;18.90;99.90;;;;;;5054112;28;20518;-72
2022/09/15 06:32:01;;;;;;;5.95;1.10;;;18.90;99.90;;;;;;5053829;28;20025;-72
2022/09/15 06:34:28;;;;;;;1.40;0.90;;;19.00;99.90;;;;;;5052532;28;20480;-72
2022/09/15 06:36:54;;;;;;;5.00;1.00;;;19.00;99.90;;;;;;5053793;28;20457;-70
2022/09/15 06:39:20;;;;;;;1.80;0.65;;;19.10;99.90;;;;;;5052372;28;20515;-72
2022/09/15 06:41:46;;;;;;;1.40;0.77;;;19.00;99.90;;;;;;5052358;28;20028;-72
2022/09/15 06:44:11;;;;;;;2.97;0.90;;;19.00;99.90;;;;;;5053815;28;20036;-72
2022/09/15 06:46:37;;;;;;;4.43;1.13;;;19.00;99.90;;;;;;5052399;28;20025;-72
2022/09/15 06:49:03;;;;;;;5.32;0.85;;;18.90;99.90;;;;;;5053980;28;20033;-73
2022/09/15 06:51:34;;;;;;;4.82;0.98;;;18.90;99.90;;;;;;5052366;28;20025;-72
2022/09/15 06:54:02;;;;;;;3.67;1.20;;;18.90;99.90;;;;;;5052460;28;20021;-72
2022/09/15 06:56:28;;;;;;;2.60;0.95;;;18.90;99.90;;;;;;5053902;28;20037;-73
2022/09/15 06:58:57;;;;;;;5.32;0.98;;;18.90;99.90;;;;;;5053526;28;20040;-73
2022/09/15 07:01:26;;;;;;;1.65;0.80;;;18.90;99.90;;;;;;5053268;28;20108;-73
2022/09/15 07:03:53;;;;;;;5.32;1.23;;;19.00;99.90;;;;;;5053173;28;20049;-73
2022/09/15 07:06:20;;;;;;;2.35;0.73;;;19.00;99.90;;;;;;5052229;28;20036;-73
2022/09/15 07:08:46;;;;;;;0.68;0.68;;;19.10;99.90;;;;;;5053604;28;20108;-73
2022/09/15 07:11:13;;;;;;;4.53;0.90;;;19.30;99.90;;;;;;5053226;28;20426;-72
2022/09/15 07:13:39;;;;;;;4.22;1.00;;;19.40;99.90;;;;;;5055363;28;20389;-72
2022/09/15 07:16:07;;;;;;;2.33;0.80;;;19.50;99.90;;;;;;5056289;28;20530;-71
2022/09/15 07:18:33;;;;;;;0.87;0.67;;;19.60;99.90;;;;;;5056156;28;20036;-71
2022/09/15 07:21:01;;;;;;;2.25;0.85;;;19.70;99.90;;;;;;5056310;28;20812;-73
2022/09/15 07:23:26;;;;;;;4.57;0.80;;;19.80;99.90;;;;;;5056275;28;20044;-71
2022/09/15 07:26:03;;;;;;;2.53;0.82;;;19.90;99.90;;;;;;5057475;28;20384;-73
2022/09/15 07:28:28;;;;;;;1.98;0.60;;;19.90;99.90;;;;;;5057159;28;20079;-72
2022/09/15 07:30:54;;;;;;;4.10;0.70;;;20.00;99.90;;;;;;5056788;28;20025;-73
2022/09/15 07:33:19;;;;;;;6.78;1.10;;;20.10;99.90;;;;;;5059657;28;20079;-73
2022/09/15 07:35:45;;;;;;;2.58;0.70;;;20.20;99.90;;;;;;5062229;28;20419;-73
2022/09/15 07:38:11;;;;;;;4.38;0.88;;;20.20;99.90;;;;;;5061436;28;20037;-73
2022/09/15 07:40:37;;;;;;;2.63;0.77;;;20.20;99.90;;;;;;5058219;28;20427;-73
2022/09/15 07:43:04;;;;;;;4.68;0.75;;;20.30;99.90;;;;;;5057502;28;20380;-73
2022/09/15 07:45:31;;;;;;;3.38;1.00;;;20.40;99.90;;;;;;5056246;28;20048;-73
2022/09/15 07:47:56;;;;;;;4.07;1.30;;;20.40;99.90;;;;;;5056262;28;20103;-73
2022/09/15 07:50:22;;;;;;;3.70;0.70;;;20.50;99.90;;;;;;5057565;28;20099;-73
2022/09/15 07:52:48;;;;;;;3.22;0.60;;;20.60;99.90;;;;;;5057377;28;20029;-73
2022/09/15 07:55:13;;;;;;;1.00;0.65;;;20.70;99.90;;;;;;5056066;28;20381;-73
2022/09/15 07:57:39;;;;;;;3.33;0.85;;;20.70;99.90;;;;;;5056171;28;20033;-73
2022/09/15 08:00:05;;;;;;;3.25;0.82;;;20.70;99.90;;;;;;5057607;28;20036;-73
2022/09/15 08:02:31;;;;;;;2.35;0.70;;;20.70;99.90;;;;;;5056607;28;20044;-74
2022/09/15 08:04:57;;;;;;;4.07;0.73;;;20.80;99.90;;;;;;5056409;28;20053;-73
2022/09/15 08:07:23;;;;;;;4.03;0.70;;;20.80;99.90;;;;;;5057411;28;20108;-73
2022/09/15 08:09:49;;;;;;;1.85;0.75;;;20.90;99.90;;;;;;5055631;28;20021;-73
2022/09/15 08:12:14;;;;;;;2.42;0.73;;;20.90;99.90;;;;;;5055502;28;20035;-74
2022/09/15 08:14:40;;;;;;;0.90;0.40;;;21.00;99.90;;;;;;5056554;28;20021;-73
2022/09/15 08:17:05;;;;;;;1.73;0.60;;;21.00;99.90;;;;;;5056359;28;20029;-73
2022/09/15 08:19:33;;;;;;;2.67;0.63;;;21.00;99.90;;;;;;5054944;28;20021;-74
2022/09/15 08:21:59;;;;;;;1.90;0.70;;;21.00;99.90;;;;;;5055396;28;20040;-74
2022/09/15 08:24:24;;;;;;;2.45;0.40;;;21.00;99.90;;;;;;5054626;28;20032;-74
2022/09/15 08:26:50;;;;;;;2.50;0.57;;;21.00;99.90;;;;;;5055333;28;20025;-74
2022/09/15 08:29:17;;;;;;;2.42;0.90;;;21.00;99.90;;;;;;5055976;28;20025;-74
2022/09/15 08:31:45;;;;;;;1.48;0.80;;;21.00;99.90;;;;;;5056269;28;20056;-73
2022/09/15 08:34:12;;;;;;;1.90;0.60;;;21.00;99.90;;;;;;5054959;28;20031;-74
2022/09/15 08:36:38;;;;;;;0.95;0.60;;;21.10;99.90;;;;;;5054930;28;20040;-74
2022/09/15 08:39:05;;;;;;;4.03;0.60;;;21.10;99.90;;;;;;5055120;28;20090;-74
2022/09/15 08:41:38;;;;;;;1.48;0.60;;;21.10;99.90;;;;;;5056563;28;20025;-74
2022/09/15 08:44:22;;;;;;;4.15;0.88;;;21.10;99.90;;;;;;5055206;28;20477;-74
2022/09/15 08:47:03;;;;;;;0.90;0.70;;;21.10;99.90;;;;;;5055537;28;20469;-74
2022/09/15 08:49:36;;;;;;;1.98;0.55;;;21.20;99.90;;;;;;5060619;28;20103;-74
2022/09/15 08:52:06;;;;;;;4.05;1.33;;;21.30;99.90;;;;;;5063236;28;20040;-74
2022/09/15 08:54:33;;;;;;;0.88;0.70;;;21.40;99.90;;;;;;5063498;28;20029;-74
2022/09/15 08:57:00;;;;;;;1.40;0.50;;;21.60;99.90;;;;;;5063248;28;20077;-74
2022/09/15 08:59:36;;;;;;;3.90;0.98;;;21.70;99.90;;;;;;5060782;28;20026;-74
2022/09/15 09:02:02;;;;;;;1.85;0.73;;;21.70;99.90;;;;;;5061957;28;20040;-74
2022/09/15 09:04:40;;;;;;;1.27;0.65;;;21.60;99.90;;;;;;5057291;28;20053;-74
2022/09/15 09:07:17;;;;;;;2.47;0.68;;;21.50;99.90;;;;;;5054754;28;20024;-74
2022/09/15 09:10:02;;;;;;;1.35;0.40;;;21.50;99.90;;;;;;5055521;28;20032;-74
2022/09/15 09:12:54;;;;;;;6.13;0.85;;;21.50;99.90;;;;;;5054130;28;20032;-74
2022/09/15 09:15:52;;;;;;;2.85;0.55;;;21.40;99.90;;;;;;5054244;28;20029;-74
2022/09/15 09:18:21;;;;;;;2.50;0.63;;;21.40;99.90;;;;;;5047359;28;20033;-74
2022/09/15 09:21:02;;;;;;;1.20;0.47;;;21.20;99.90;;;;;;5055301;28;20049;-74
2022/09/15 09:23:31;;;;;;;2.63;0.70;;;21.00;99.90;;;;;;5055414;28;20033;-74
2022/09/15 09:25:57;;;;;;;1.00;0.65;;;20.80;99.90;;;;;;5055207;28;20052;-74
2022/09/15 09:28:29;;;;;;;4.25;0.82;;;20.70;99.90;;;;;;5053814;28;20025;-73
2022/09/15 09:31:00;;;;;;;1.08;0.65;;;20.50;99.90;;;;;;5054307;28;20134;-73
2022/09/15 09:33:33;;;;;;;2.20;0.57;;;20.30;99.90;;;;;;5053941;28;20039;-73
2022/09/15 09:36:01;;;;;;;3.13;0.77;;;20.10;99.90;;;;;;5054698;28;20032;-74
2022/09/15 09:38:42;;;;;;;2.53;0.60;;;20.00;99.90;;;;;;5054812;28;20028;-73
2022/09/15 09:41:24;;;;;;;5.53;0.90;;;19.80;99.90;;;;;;5053446;28;20067;-73
2022/09/15 09:43:53;;;;;;;1.05;0.60;;;19.60;99.90;;;;;;5053501;28;20036;-73
2022/09/15 09:46:20;;;;;;;5.72;1.02;;;19.50;99.90;;;;;;5054741;28;20045;-73
2022/09/15 09:48:53;;;;;;;2.50;0.80;;;19.50;99.90;;;;;;5054675;28;20087;-74
2022/09/15 09:51:31;;;;;;;1.17;0.50;;;19.40;99.90;;;;;;5053547;28;20063;-74
2022/09/15 09:54:05;;;;;;;3.03;1.30;;;19.40;99.90;;;;;;5053437;28;20036;-75
2022/09/15 09:56:30;;;;;;;2.95;0.40;;;19.40;99.90;;;;;;5054744;28;20032;-74
2022/09/15 09:58:56;;;;;;;0.95;0.50;;;19.40;99.90;;;;;;5053301;28;20033;-74
2022/09/15 10:01:24;;;;;;;3.33;0.88;;;19.40;99.90;;;;;;5053284;28;20067;-74
2022/09/15 10:04:15;;;;;;;1.17;0.73;;;19.40;99.90;;;;;;5054669;28;20049;-74
2022/09/15 10:06:41;;;;;;;2.13;0.70;;;19.40;99.90;;;;;;5053612;28;20025;-74
2022/09/15 10:09:18;;;;;;;2.83;0.70;;;19.40;99.90;;;;;;5054561;28;20059;-74
2022/09/15 10:11:49;;;;;;;2.15;0.98;;;19.50;99.90;;;;;;5053958;28;20489;-74
2022/09/15 10:14:24;;;;;;;4.93;0.70;;;19.50;99.90;;;;;;5053705;28;20028;-74
2022/09/15 10:17:01;;;;;;;7.88;0.55;;;19.50;99.90;;;;;;5054573;28;20029;-75
2022/09/15 10:19:29;;;;;;;1.33;0.50;;;19.60;99.90;;;;;;5053050;28;20024;-74
2022/09/15 10:21:57;;;;;;;2.10;0.60;;;19.60;99.90;;;;;;5054215;28;20094;-74
2022/09/15 10:24:34;;;;;;;2.22;0.93;;;19.60;99.90;;;;;;5053133;28;20267;-75
2022/09/15 10:27:26;;;;;;;1.13;0.80;;;19.50;99.90;;;;;;5053075;28;20029;-74
2022/09/15 10:29:53;;;;;;;1.27;0.30;;;19.60;99.90;;;;;;5052191;28;20037;-74
2022/09/15 10:32:23;;;;;;;1.95;0.40;;;19.50;99.90;;;;;;5052804;28;20484;-74
2022/09/15 10:34:57;;;;;;;1.75;0.40;;;19.50;99.90;;;;;;5053020;28;20075;-74
2022/09/15 10:38:07;;;;;;;3.58;0.52;;;19.50;99.90;;;;;;5054065;28;20106;-75
2022/09/15 10:41:03;;;;;;;1.85;0.63;;;19.60;99.90;;;;;;5044746;28;20040;-74
2022/09/15 10:44:19;;;;;;;2.20;0.82;;;19.60;99.90;;;;;;5053797;28;20041;-75
2022/09/15 10:47:07;;;;;;;1.50;0.50;;;19.70;99.90;;;;;;5036398;28;20064;-74
2022/09/15 10:49:33;;;;;;;1.90;0.63;;;19.70;99.90;;;;;;5052803;28;20025;-74
2022/09/15 10:52:16;;;;;;;2.67;0.40;;;19.70;99.90;;;;;;5052786;28;20754;-74
2022/09/15 10:55:00;;;;;;;0.75;0.50;;;19.70;99.90;;;;;;5053032;28;20032;-74
2022/09/15 10:58:17;;;;;;;2.65;0.65;;;19.70;99.90;;;;;;5054037;28;20021;-74
2022/09/15 11:01:16;;;;;;;2.10;0.35;;;19.70;99.90;;;;;;4997986;28;20543;-76
2022/09/15 11:03:59;;;;;;;3.22;0.40;;;19.60;99.90;;;;;;5016988;28;20054;-74
2022/09/15 11:07:06;;;;;;;0.93;0.35;;;19.70;99.90;;;;;;5016533;28;20065;-75
2022/09/15 11:09:46;;;;;;;2.55;0.40;;;19.70;99.90;;;;;;5008046;28;20203;-75
2022/09/15 11:12:44;;;;;;;0.60;0.30;;;19.70;99.90;;;;;;5014702;28;20042;-74
2022/09/15 11:15:39;;;;;;;4.93;0.45;;;19.70;99.90;;;;;;5006274;28;20045;-74
2022/09/15 11:18:25;;;;;;;2.63;0.22;;;19.70;99.90;;;;;;4982272;28;20137;-74
2022/09/15 11:21:18;;;;;;;3.03;0.32;;;19.80;99.90;;;;;;4995590;28;20576;-74
2022/09/15 11:24:22;;;;;;;1.98;0.20;;;19.90;99.90;;;;;;5011497;28;20038;-74
2022/09/15 11:27:32;;;;;;;0.98;0.20;;;19.90;99.90;;;;;;5011610;28;20156;-74
2022/09/15 11:30:19;;;;;;;1.38;0.30;;;19.90;99.90;;;;;;4998999;28;20532;-74
2022/09/15 11:32:57;;;;;;;0.82;0.35;;;19.90;99.90;;;;;;5053189;28;20036;-74
2022/09/15 11:35:44;;;;;;;0.75;0.20;;;19.90;99.90;;;;;;5052618;28;20075;-75
2022/09/15 11:38:18;;;;;;;1.58;0.17;;;19.90;99.90;;;;;;5053480;28;20032;-75
2022/09/15 11:40:51;;;;;;;0.73;0.22;;;19.70;99.90;;;;;;5053281;28;20022;-74
2022/09/15 11:43:59;;;;;;;0.38;0.30;;;19.60;99.90;;;;;;5053281;28;20025;-74
2022/09/15 11:46:42;;;;;;;2.72;1.00;;;19.50;99.90;;;;;;5053260;28;20114;-73
2022/09/15 11:49:23;;;;;;;1.65;0.45;;;19.30;99.90;;;;;;5052887;28;20032;-73
2022/09/15 11:51:58;;;;;;;0.35;0.30;;;19.10;99.90;;;;;;5051906;28;20469;-73
2022/09/15 11:54:53;;;;;;;5.47;0.43;;;19.00;99.90;;;;;;5051920;28;20138;-73
2022/09/15 11:57:25;;;;;;;2.15;0.50;;;18.80;99.90;;;;;;5037103;28;20037;-73
2022/09/15 12:00:01;;;;;;;1.20;0.40;;;18.70;99.90;;;;;;5056282;28;20457;-72
2022/09/15 12:03:17;;;;;;;3.10;1.10;;;18.60;99.90;;;;;;5056002;28;20032;-73
2022/09/15 12:05:50;;;;;;;2.13;0.60;;;18.50;99.90;;;;;;5042618;28;20056;-73
2022/09/15 12:08:45;;;;;;;2.67;0.70;;;18.50;99.90;;;;;;5056586;28;20067;-75
2022/09/15 12:11:23;;;;;;;2.25;0.90;;;18.40;99.90;;;;;;5049735;28;20514;-61
2022/09/15 12:13:49;;;;;;;3.95;0.75;;;18.40;99.90;;;;;;5056115;28;20460;-58
2022/09/15 12:16:16;;;;;;;1.73;0.60;;;18.30;99.90;;;;;;5056475;28;20033;-57
2022/09/15 12:18:56;;;;;;;2.20;0.45;;;18.30;99.90;;;;;;5056582;28;20460;-57
2022/09/15 12:21:38;;;;;;;1.25;0.55;;;18.30;99.90;;;;;;5056011;28;20033;-57
2022/09/15 12:24:18;;;;;;;4.95;0.60;;;18.30;99.90;;;;;;5055499;28;20396;-58
2022/09/15 12:26:47;;;;;;;2.65;0.77;;;18.20;99.90;;;;;;5055965;28;20021;-58
2022/09/15 12:29:25;;;;;;;2.75;0.57;;;18.20;99.90;;;;;;5055167;28;20025;-58
2022/09/15 12:32:15;;;;;;;6.95;1.85;;;18.20;99.90;;;;;;5056136;28;20087;-58
2022/09/15 12:35:00;;;;;;;7.07;3.35;;;18.10;99.90;;;;;;5056165;28;20060;-58
2022/09/15 12:37:33;;;;;;;10.02;1.55;;;18.10;99.90;;;;;;5056355;28;20033;-58
2022/09/15 12:39:59;;;;;;;2.95;1.10;;;18.10;99.90;;;;;;5055946;28;20338;-58
2022/09/15 12:42:30;;;;;;;2.25;0.80;;;18.10;99.90;;;;;;5056104;28;20036;-58
2022/09/15 12:44:59;;;;;;;1.65;0.68;;;18.20;99.90;;;;;;5054835;28;20055;-58
2022/09/15 12:47:30;;;;;;;3.42;1.00;;;18.20;99.90;;;;;;5056195;28;20032;-58
2022/09/15 12:50:14;;;;;;;2.42;0.73;;;18.30;99.90;;;;;;5056056;28;20025;-58
2022/09/15 12:52:53;;;;;;;1.70;0.80;;;18.30;99.90;;;;;;5055622;28;20029;-58
2022/09/15 12:55:30;;;;;;;4.05;1.33;;;18.50;99.90;;;;;;5055841;28;20025;-58
2022/09/15 12:58:05;;;;;;;5.55;0.63;;;18.50;99.90;;;;;;5055504;28;20033;-57
2022/09/15 13:00:37;;;;;;;2.40;0.68;;;18.50;99.90;;;;;;5055772;28;20029;-59
2022/09/15 13:03:06;;;;;;;0.80;0.47;;;18.50;99.90;;;;;;5055296;28;20369;-58
2022/09/15 13:05:40;;;;;;;3.90;0.73;;;18.50;99.90;;;;;;5055706;28;20017;-58
2022/09/15 13:08:32;;;;;;;2.63;0.70;;;18.60;99.90;;;;;;5055538;28;20071;-58
2022/09/15 13:11:04;;;;;;;7.78;1.33;;;18.70;99.90;;;;;;5052087;28;20037;-57
2022/09/15 13:13:57;;;;;;;3.30;0.93;;;18.80;99.90;;;;;;5055223;28;20032;-74